sim
Sign-in with your pilot id or email,
or register
Callsign
Passwort

Schedule Details

Flight Number: RYR5912 (1)
Departure: Seville San Pablo Airport (LEZL) at 06:00
Arrival: Fuerteventura Airport (GCFV) at 08:15
Route: Ryanair Passenger Schedule. Enter filed route here before submitting Pirep.

Weather Information
Getting current METAR information for LEZL 211500Z 14002KT CAVOK 21/07 Q1025 NOSIG
Getting current METAR information for GCFV 211500Z 06004KT 010V110 CAVOK 20/14 Q1021

Schedule Frequency

Route Map